sensor_id;sensor_type;location;lat;lon;timestamp;pressure;altitude;pressure_sealevel;temperature;humidity
48555;BME280;34336;48.270;16.716;2023-05-20T00:00:31;109325.25;;;18.16;100.00
48555;BME280;34336;48.270;16.716;2023-05-20T00:02:58;109325.25;;;18.16;100.00
48555;BME280;34336;48.270;16.716;2023-05-20T00:05:26;109325.25;;;18.16;100.00
48555;BME280;34336;48.270;16.716;2023-05-20T00:07:52;109325.25;;;18.16;100.00
48555;BME280;34336;48.270;16.716;2023-05-20T00:10:19;109325.25;;;18.16;100.00
48555;BME280;34336;48.270;16.716;2023-05-20T00:12:46;109325.25;;;18.16;100.00
48555;BME280;34336;48.270;16.716;2023-05-20T00:15:12;109325.25;;;18.16;100.00
48555;BME280;34336;48.270;16.716;2023-05-20T00:17:39;109325.25;;;18.16;100.00
48555;BME280;34336;48.270;16.716;2023-05-20T00:20:06;109325.25;;;18.16;100.00
48555;BME280;34336;48.270;16.716;2023-05-20T00:22:33;109325.25;;;18.16;100.00
48555;BME280;34336;48.270;16.716;2023-05-20T00:25:00;109325.25;;;18.16;100.00
48555;BME280;34336;48.270;16.716;2023-05-20T00:27:26;109325.25;;;18.16;100.00
48555;BME280;34336;48.270;16.716;2023-05-20T00:29:53;109325.25;;;18.16;100.00
48555;BME280;34336;48.270;16.716;2023-05-20T00:32:19;109325.25;;;18.16;100.00
48555;BME280;34336;48.270;16.716;2023-05-20T00:34:56;109325.25;;;18.16;100.00
48555;BME280;34336;48.270;16.716;2023-05-20T00:37:23;109325.25;;;18.16;100.00
48555;BME280;34336;48.270;16.716;2023-05-20T00:39:50;109325.25;;;18.16;100.00
48555;BME280;34336;48.270;16.716;2023-05-20T00:42:20;109325.25;;;18.16;100.00
48555;BME280;34336;48.270;16.716;2023-05-20T00:44:47;109325.25;;;18.16;100.00
48555;BME280;34336;48.270;16.716;2023-05-20T00:47:15;109325.25;;;18.16;100.00
48555;BME280;34336;48.270;16.716;2023-05-20T00:49:43;109325.25;;;18.16;100.00
48555;BME280;34336;48.270;16.716;2023-05-20T00:52:10;109325.25;;;18.16;100.00
48555;BME280;34336;48.270;16.716;2023-05-20T00:54:37;109325.25;;;18.16;100.00
48555;BME280;34336;48.270;16.716;2023-05-20T00:57:04;109325.25;;;18.16;100.00
48555;BME280;34336;48.270;16.716;2023-05-20T00:59:35;109325.25;;;18.16;100.00
48555;BME280;34336;48.270;16.716;2023-05-20T01:02:05;109325.25;;;18.16;100.00
48555;BME280;34336;48.270;16.716;2023-05-20T01:04:32;109325.25;;;18.16;100.00
48555;BME280;34336;48.270;16.716;2023-05-20T01:06:59;109325.25;;;18.16;100.00
48555;BME280;34336;48.270;16.716;2023-05-20T01:09:26;109325.25;;;18.16;100.00
48555;BME280;34336;48.270;16.716;2023-05-20T01:14:26;109325.25;;;18.16;100.00
48555;BME280;34336;48.270;16.716;2023-05-20T01:16:54;109325.25;;;18.16;100.00
48555;BME280;34336;48.270;16.716;2023-05-20T01:19:30;109325.25;;;18.16;100.00
48555;BME280;34336;48.270;16.716;2023-05-20T01:22:01;109325.25;;;18.16;100.00
48555;BME280;34336;48.270;16.716;2023-05-20T01:24:31;109325.25;;;18.16;100.00
48555;BME280;34336;48.270;16.716;2023-05-20T01:26:58;109325.25;;;18.16;100.00
48555;BME280;34336;48.270;16.716;2023-05-20T01:29:25;109325.25;;;18.16;100.00
48555;BME280;34336;48.270;16.716;2023-05-20T01:31:53;109325.25;;;18.16;100.00
48555;BME280;34336;48.270;16.716;2023-05-20T01:34:22;109325.25;;;18.16;100.00
48555;BME280;34336;48.270;16.716;2023-05-20T01:36:50;109325.25;;;18.16;100.00
48555;BME280;34336;48.270;16.716;2023-05-20T01:39:17;109325.25;;;18.16;100.00
48555;BME280;34336;48.270;16.716;2023-05-20T01:41:45;109325.25;;;18.16;100.00
48555;BME280;34336;48.270;16.716;2023-05-20T01:44:12;109325.25;;;18.16;100.00
48555;BME280;34336;48.270;16.716;2023-05-20T01:46:39;109325.25;;;18.16;100.00
48555;BME280;34336;48.270;16.716;2023-05-20T01:49:05;109325.25;;;18.16;100.00
48555;BME280;34336;48.270;16.716;2023-05-20T01:51:32;109325.25;;;18.16;100.00
48555;BME280;34336;48.270;16.716;2023-05-20T01:54:01;109325.25;;;18.16;100.00
48555;BME280;34336;48.270;16.716;2023-05-20T01:56:29;109325.25;;;18.16;100.00
48555;BME280;34336;48.270;16.716;2023-05-20T01:58:57;109325.25;;;18.16;100.00
48555;BME280;34336;48.270;16.716;2023-05-20T02:01:24;109325.25;;;18.16;100.00
48555;BME280;34336;48.270;16.716;2023-05-20T02:03:51;109325.25;;;18.16;100.00
48555;BME280;34336;48.270;16.716;2023-05-20T02:06:17;109325.25;;;18.16;100.00
48555;BME280;34336;48.270;16.716;2023-05-20T02:08:44;109325.25;;;18.16;100.00
48555;BME280;34336;48.270;16.716;2023-05-20T02:11:11;109325.25;;;18.16;100.00
48555;BME280;34336;48.270;16.716;2023-05-20T02:13:37;109325.25;;;18.16;100.00
48555;BME280;34336;48.270;16.716;2023-05-20T02:16:04;109325.25;;;18.16;100.00
48555;BME280;34336;48.270;16.716;2023-05-20T02:18:31;109325.25;;;18.16;100.00
48555;BME280;34336;48.270;16.716;2023-05-20T02:21:04;109325.25;;;18.16;100.00
48555;BME280;34336;48.270;16.716;2023-05-20T02:23:31;109325.25;;;18.16;100.00
48555;BME280;34336;48.270;16.716;2023-05-20T02:25:57;109325.25;;;18.16;100.00
48555;BME280;34336;48.270;16.716;2023-05-20T02:28:24;109325.25;;;18.16;100.00
48555;BME280;34336;48.270;16.716;2023-05-20T02:30:51;109325.25;;;18.16;100.00
48555;BME280;34336;48.270;16.716;2023-05-20T02:33:17;109325.25;;;18.16;100.00
48555;BME280;34336;48.270;16.716;2023-05-20T02:35:45;109325.25;;;18.16;100.00
48555;BME280;34336;48.270;16.716;2023-05-20T02:38:12;109325.25;;;18.16;100.00
48555;BME280;34336;48.270;16.716;2023-05-20T02:40:39;109325.25;;;18.16;100.00
48555;BME280;34336;48.270;16.716;2023-05-20T02:43:09;109325.25;;;18.16;100.00
48555;BME280;34336;48.270;16.716;2023-05-20T02:45:35;109325.25;;;18.16;100.00
48555;BME280;34336;48.270;16.716;2023-05-20T02:48:02;109325.25;;;18.16;100.00
48555;BME280;34336;48.270;16.716;2023-05-20T02:50:30;109325.25;;;18.16;100.00
48555;BME280;34336;48.270;16.716;2023-05-20T02:52:57;109325.25;;;18.16;100.00
48555;BME280;34336;48.270;16.716;2023-05-20T02:55:23;109325.25;;;18.16;100.00
48555;BME280;34336;48.270;16.716;2023-05-20T02:57:50;109325.25;;;18.16;100.00
48555;BME280;34336;48.270;16.716;2023-05-20T03:00:17;109325.25;;;18.16;100.00
48555;BME280;34336;48.270;16.716;2023-05-20T03:02:44;109325.25;;;18.16;100.00
48555;BME280;34336;48.270;16.716;2023-05-20T03:05:11;109325.25;;;18.16;100.00
48555;BME280;34336;48.270;16.716;2023-05-20T03:07:37;109325.25;;;18.16;100.00
48555;BME280;34336;48.270;16.716;2023-05-20T03:10:05;109325.25;;;18.16;100.00
48555;BME280;34336;48.270;16.716;2023-05-20T03:12:32;109325.25;;;18.16;100.00
48555;BME280;34336;48.270;16.716;2023-05-20T03:14:58;109325.25;;;18.16;100.00
48555;BME280;34336;48.270;16.716;2023-05-20T03:17:26;109325.25;;;18.16;100.00
48555;BME280;34336;48.270;16.716;2023-05-20T03:19:53;109325.25;;;18.16;100.00
48555;BME280;34336;48.270;16.716;2023-05-20T03:22:21;109325.25;;;18.16;100.00
48555;BME280;34336;48.270;16.716;2023-05-20T03:24:47;109325.25;;;18.16;100.00
48555;BME280;34336;48.270;16.716;2023-05-20T03:27:14;109325.25;;;18.16;100.00
48555;BME280;34336;48.270;16.716;2023-05-20T03:29:40;109325.25;;;18.16;100.00
48555;BME280;34336;48.270;16.716;2023-05-20T03:32:07;109325.25;;;18.16;100.00
48555;BME280;34336;48.270;16.716;2023-05-20T03:34:36;109325.25;;;18.16;100.00
48555;BME280;34336;48.270;16.716;2023-05-20T03:37:03;109325.25;;;18.16;100.00
48555;BME280;34336;48.270;16.716;2023-05-20T03:39:30;109325.25;;;18.16;100.00
48555;BME280;34336;48.270;16.716;2023-05-20T03:41:57;109325.25;;;18.16;100.00
48555;BME280;34336;48.270;16.716;2023-05-20T03:44:24;109325.25;;;18.16;100.00
48555;BME280;34336;48.270;16.716;2023-05-20T03:46:51;109325.25;;;18.16;97.24
48555;BME280;34336;48.270;16.716;2023-05-20T03:49:17;109325.25;;;18.16;88.84
48555;BME280;34336;48.270;16.716;2023-05-20T03:51:45;109325.25;;;18.16;86.21
48555;BME280;34336;48.270;16.716;2023-05-20T03:54:13;109325.25;;;18.16;80.30
48555;BME280;34336;48.270;16.716;2023-05-20T03:56:45;109325.25;;;18.16;80.49
48555;BME280;34336;48.270;16.716;2023-05-20T03:59:12;109325.25;;;18.16;76.92
48555;BME280;34336;48.270;16.716;2023-05-20T04:01:39;109325.25;;;18.16;73.36
48555;BME280;34336;48.270;16.716;2023-05-20T04:04:05;109325.25;;;18.16;72.04
48555;BME280;34336;48.270;16.716;2023-05-20T04:06:32;109325.25;;;18.16;70.76
48555;BME280;34336;48.270;16.716;2023-05-20T04:08:59;109325.25;;;18.16;72.62
48555;BME280;34336;48.270;16.716;2023-05-20T04:11:26;109325.25;;;18.16;69.55
48555;BME280;34336;48.270;16.716;2023-05-20T04:13:53;109325.25;;;18.16;67.16
48555;BME280;34336;48.270;16.716;2023-05-20T04:16:20;109325.25;;;18.16;65.25
48555;BME280;34336;48.270;16.716;2023-05-20T04:18:47;109325.25;;;18.16;62.64
48555;BME280;34336;48.270;16.716;2023-05-20T04:21:14;109325.25;;;18.16;62.43
48555;BME280;34336;48.270;16.716;2023-05-20T04:23:41;109325.25;;;18.16;61.47
48555;BME280;34336;48.270;16.716;2023-05-20T04:26:08;109325.25;;;18.16;58.35
48555;BME280;34336;48.270;16.716;2023-05-20T04:28:34;109325.25;;;18.16;57.06
48555;BME280;34336;48.270;16.716;2023-05-20T04:31:04;109325.25;;;18.16;58.12
48555;BME280;34336;48.270;16.716;2023-05-20T04:33:33;109325.25;;;18.16;57.35
48555;BME280;34336;48.270;16.716;2023-05-20T04:36:05;109325.25;;;18.16;57.53
48555;BME280;34336;48.270;16.716;2023-05-20T04:38:33;109325.25;;;18.16;55.48
48555;BME280;34336;48.270;16.716;2023-05-20T04:41:00;109325.25;;;18.16;56.26
48555;BME280;34336;48.270;16.716;2023-05-20T04:43:27;109325.25;;;18.16;58.82
48555;BME280;34336;48.270;16.716;2023-05-20T04:45:57;109325.25;;;18.16;55.15
48555;BME280;34336;48.270;16.716;2023-05-20T04:48:25;109325.25;;;18.16;54.78
48555;BME280;34336;48.270;16.716;2023-05-20T04:50:52;109325.25;;;18.16;52.20
48555;BME280;34336;48.270;16.716;2023-05-20T04:53:19;109325.25;;;18.16;54.92
48555;BME280;34336;48.270;16.716;2023-05-20T04:55:49;109325.25;;;18.16;55.81
48555;BME280;34336;48.270;16.716;2023-05-20T04:58:20;109325.25;;;18.16;50.75
48555;BME280;34336;48.270;16.716;2023-05-20T05:00:50;109325.25;;;18.16;48.85
48555;BME280;34336;48.270;16.716;2023-05-20T05:03:17;109325.25;;;18.16;48.70
48555;BME280;34336;48.270;16.716;2023-05-20T05:05:43;109325.25;;;18.16;46.94
48555;BME280;34336;48.270;16.716;2023-05-20T05:08:10;109325.25;;;18.16;47.39
48555;BME280;34336;48.270;16.716;2023-05-20T05:10:42;109325.25;;;18.16;45.28
48555;BME280;34336;48.270;16.716;2023-05-20T05:13:10;109325.25;;;18.16;45.40
48555;BME280;34336;48.270;16.716;2023-05-20T05:15:37;109325.25;;;18.16;44.23
48555;BME280;34336;48.270;16.716;2023-05-20T05:18:04;109325.25;;;18.16;44.88
48555;BME280;34336;48.270;16.716;2023-05-20T05:20:32;109325.25;;;18.16;46.76
48555;BME280;34336;48.270;16.716;2023-05-20T05:22:59;109325.25;;;18.16;44.68
48555;BME280;34336;48.270;16.716;2023-05-20T05:25:26;109325.25;;;18.16;45.15
48555;BME280;34336;48.270;16.716;2023-05-20T05:27:52;109325.25;;;18.16;45.11
48555;BME280;34336;48.270;16.716;2023-05-20T05:30:21;109325.25;;;18.16;44.43
48555;BME280;34336;48.270;16.716;2023-05-20T05:32:48;109325.25;;;18.16;43.55
48555;BME280;34336;48.270;16.716;2023-05-20T05:35:15;109325.25;;;18.16;48.79
48555;BME280;34336;48.270;16.716;2023-05-20T05:37:42;109325.25;;;18.16;48.70
48555;BME280;34336;48.270;16.716;2023-05-20T05:40:09;109325.25;;;18.16;48.61
48555;BME280;34336;48.270;16.716;2023-05-20T05:42:36;109325.25;;;18.16;45.33
48555;BME280;34336;48.270;16.716;2023-05-20T05:45:03;109325.25;;;18.16;46.52
48555;BME280;34336;48.270;16.716;2023-05-20T05:47:30;109325.25;;;18.16;48.27
48555;BME280;34336;48.270;16.716;2023-05-20T05:49:59;109325.25;;;18.16;50.83
48555;BME280;34336;48.270;16.716;2023-05-20T05:52:26;109325.25;;;18.16;52.07
48555;BME280;34336;48.270;16.716;2023-05-20T05:54:53;109325.25;;;18.16;52.43
48555;BME280;34336;48.270;16.716;2023-05-20T05:57:20;109325.25;;;18.16;57.43
48555;BME280;34336;48.270;16.716;2023-05-20T05:59:47;109325.25;;;18.16;60.13
48555;BME280;34336;48.270;16.716;2023-05-20T06:02:14;109325.25;;;18.16;60.36
48555;BME280;34336;48.270;16.716;2023-05-20T06:04:40;109325.25;;;18.16;60.83
48555;BME280;34336;48.270;16.716;2023-05-20T06:07:07;109325.25;;;18.16;58.99
48555;BME280;34336;48.270;16.716;2023-05-20T06:09:34;109325.25;;;18.16;57.27
48555;BME280;34336;48.270;16.716;2023-05-20T06:12:01;109325.25;;;18.16;56.64
48555;BME280;34336;48.270;16.716;2023-05-20T06:14:28;109325.25;;;18.16;52.09
48555;BME280;34336;48.270;16.716;2023-05-20T06:16:55;109325.25;;;18.16;50.06
48555;BME280;34336;48.270;16.716;2023-05-20T06:19:21;109325.25;;;18.16;52.24
48555;BME280;34336;48.270;16.716;2023-05-20T06:21:49;109325.25;;;18.16;51.00
48555;BME280;34336;48.270;16.716;2023-05-20T06:24:16;109325.25;;;18.16;48.19
48555;BME280;34336;48.270;16.716;2023-05-20T06:26:43;109325.25;;;18.16;47.53
48555;BME280;34336;48.270;16.716;2023-05-20T06:29:11;109325.25;;;18.16;49.19
48555;BME280;34336;48.270;16.716;2023-05-20T06:31:38;109325.25;;;18.16;47.90
48555;BME280;34336;48.270;16.716;2023-05-20T06:34:04;109325.25;;;18.16;46.43
48555;BME280;34336;48.270;16.716;2023-05-20T06:36:31;109325.25;;;18.16;46.58
48555;BME280;34336;48.270;16.716;2023-05-20T06:38:59;109325.25;;;18.16;44.01
48555;BME280;34336;48.270;16.716;2023-05-20T06:41:25;109325.25;;;18.16;41.71
48555;BME280;34336;48.270;16.716;2023-05-20T06:43:52;109325.25;;;18.16;46.11
48555;BME280;34336;48.270;16.716;2023-05-20T06:46:37;109325.25;;;18.16;47.71
48555;BME280;34336;48.270;16.716;2023-05-20T06:49:08;109325.25;;;18.16;51.64
48555;BME280;34336;48.270;16.716;2023-05-20T06:51:35;109325.25;;;18.16;48.18
48555;BME280;34336;48.270;16.716;2023-05-20T06:54:02;109325.25;;;18.16;46.07
48555;BME280;34336;48.270;16.716;2023-05-20T06:56:29;109325.25;;;18.16;48.29
48555;BME280;34336;48.270;16.716;2023-05-20T06:58:57;109325.25;;;18.16;47.16
48555;BME280;34336;48.270;16.716;2023-05-20T07:01:24;109325.25;;;18.16;50.99
48555;BME280;34336;48.270;16.716;2023-05-20T07:03:51;109325.25;;;18.16;51.78
48555;BME280;34336;48.270;16.716;2023-05-20T07:06:18;109325.25;;;18.16;51.78
48555;BME280;34336;48.270;16.716;2023-05-20T07:08:44;109325.25;;;18.16;53.42
48555;BME280;34336;48.270;16.716;2023-05-20T07:11:12;109325.25;;;18.16;48.84
48555;BME280;34336;48.270;16.716;2023-05-20T07:13:38;109325.25;;;18.16;48.79
48555;BME280;34336;48.270;16.716;2023-05-20T07:16:05;109325.25;;;18.16;49.43
48555;BME280;34336;48.270;16.716;2023-05-20T07:18:33;109325.25;;;18.16;48.16
48555;BME280;34336;48.270;16.716;2023-05-20T07:21:00;109325.25;;;18.16;48.48
48555;BME280;34336;48.270;16.716;2023-05-20T07:23:37;109325.25;;;18.16;46.30
48555;BME280;34336;48.270;16.716;2023-05-20T07:26:04;109325.25;;;18.16;47.77
48555;BME280;34336;48.270;16.716;2023-05-20T07:28:31;109325.25;;;18.16;49.05
48555;BME280;34336;48.270;16.716;2023-05-20T07:30:58;109325.25;;;18.16;47.63
48555;BME280;34336;48.270;16.716;2023-05-20T07:33:27;109325.25;;;18.16;45.31
48555;BME280;34336;48.270;16.716;2023-05-20T07:35:55;109325.25;;;18.16;47.33
48555;BME280;34336;48.270;16.716;2023-05-20T07:38:22;109325.25;;;18.16;43.72
48555;BME280;34336;48.270;16.716;2023-05-20T07:40:55;109325.25;;;18.16;43.54
48555;BME280;34336;48.270;16.716;2023-05-20T07:43:22;109325.25;;;18.16;43.40
48555;BME280;34336;48.270;16.716;2023-05-20T07:45:49;109325.25;;;18.16;44.23
48555;BME280;34336;48.270;16.716;2023-05-20T07:48:16;109325.25;;;18.16;42.99
48555;BME280;34336;48.270;16.716;2023-05-20T07:50:42;109325.25;;;18.16;44.16
48555;BME280;34336;48.270;16.716;2023-05-20T07:53:09;109325.25;;;18.16;46.45
48555;BME280;34336;48.270;16.716;2023-05-20T07:55:37;109325.25;;;18.16;44.29
48555;BME280;34336;48.270;16.716;2023-05-20T07:58:05;109325.25;;;18.16;46.10
48555;BME280;34336;48.270;16.716;2023-05-20T08:00:33;109325.25;;;18.16;46.70
48555;BME280;34336;48.270;16.716;2023-05-20T08:03:03;109325.25;;;18.16;47.37
48555;BME280;34336;48.270;16.716;2023-05-20T08:05:40;109325.25;;;18.16;50.19
48555;BME280;34336;48.270;16.716;2023-05-20T08:08:07;109325.25;;;18.16;48.87
48555;BME280;34336;48.270;16.716;2023-05-20T08:10:47;109325.25;;;18.16;48.26
48555;BME280;34336;48.270;16.716;2023-05-20T08:13:14;109325.25;;;18.16;50.22
48555;BME280;34336;48.270;16.716;2023-05-20T08:15:41;109325.25;;;18.16;51.25
48555;BME280;34336;48.270;16.716;2023-05-20T08:18:07;109325.25;;;18.16;49.14
48555;BME280;34336;48.270;16.716;2023-05-20T08:20:34;109325.25;;;18.16;49.43
48555;BME280;34336;48.270;16.716;2023-05-20T08:23:01;109325.25;;;18.16;48.36
48555;BME280;34336;48.270;16.716;2023-05-20T08:25:28;109325.25;;;18.16;50.26
48555;BME280;34336;48.270;16.716;2023-05-20T08:27:56;109325.25;;;18.16;50.14
48555;BME280;34336;48.270;16.716;2023-05-20T08:30:24;109325.25;;;18.16;50.89
48555;BME280;34336;48.270;16.716;2023-05-20T08:32:51;109325.25;;;18.16;49.98
48555;BME280;34336;48.270;16.716;2023-05-20T08:35:19;109325.25;;;18.16;50.03
48555;BME280;34336;48.270;16.716;2023-05-20T08:37:49;109325.25;;;18.16;52.03
48555;BME280;34336;48.270;16.716;2023-05-20T08:40:16;109325.25;;;18.16;50.17
48555;BME280;34336;48.270;16.716;2023-05-20T08:42:43;109325.25;;;18.16;48.66
48555;BME280;34336;48.270;16.716;2023-05-20T08:45:11;109325.25;;;18.16;49.77
48555;BME280;34336;48.270;16.716;2023-05-20T08:47:41;109325.25;;;18.16;48.78
48555;BME280;34336;48.270;16.716;2023-05-20T08:50:12;109325.25;;;18.16;48.92
48555;BME280;34336;48.270;16.716;2023-05-20T08:52:41;109325.25;;;18.16;50.88
48555;BME280;34336;48.270;16.716;2023-05-20T08:55:10;109325.25;;;18.16;50.70
48555;BME280;34336;48.270;16.716;2023-05-20T08:57:39;109325.25;;;18.16;52.40
48555;BME280;34336;48.270;16.716;2023-05-20T09:00:07;109325.25;;;18.16;54.79
48555;BME280;34336;48.270;16.716;2023-05-20T09:02:38;109325.25;;;18.16;52.92
48555;BME280;34336;48.270;16.716;2023-05-20T09:05:05;109325.25;;;18.16;50.27
48555;BME280;34336;48.270;16.716;2023-05-20T09:07:32;109325.25;;;18.16;54.53
48555;BME280;34336;48.270;16.716;2023-05-20T09:09:59;109325.25;;;18.16;52.27
48555;BME280;34336;48.270;16.716;2023-05-20T09:12:26;109325.25;;;18.16;51.32
48555;BME280;34336;48.270;16.716;2023-05-20T09:14:52;109325.25;;;18.16;51.78
48555;BME280;34336;48.270;16.716;2023-05-20T09:17:22;109325.25;;;18.16;50.99
48555;BME280;34336;48.270;16.716;2023-05-20T09:19:49;109325.25;;;18.16;50.18
48555;BME280;34336;48.270;16.716;2023-05-20T09:22:23;109325.25;;;18.16;52.28
48555;BME280;34336;48.270;16.716;2023-05-20T09:24:50;109325.25;;;18.16;52.88
48555;BME280;34336;48.270;16.716;2023-05-20T09:27:18;109325.25;;;18.16;52.15
48555;BME280;34336;48.270;16.716;2023-05-20T09:29:48;109325.25;;;18.16;52.92
48555;BME280;34336;48.270;16.716;2023-05-20T09:32:15;109325.25;;;18.16;50.37
48555;BME280;34336;48.270;16.716;2023-05-20T09:34:42;109325.25;;;18.16;50.28
48555;BME280;34336;48.270;16.716;2023-05-20T09:37:10;109325.25;;;18.16;53.34
48555;BME280;34336;48.270;16.716;2023-05-20T09:39:55;109325.25;;;18.16;52.69
48555;BME280;34336;48.270;16.716;2023-05-20T09:42:26;109325.25;;;18.16;53.81
48555;BME280;34336;48.270;16.716;2023-05-20T09:44:54;109325.25;;;18.16;51.80
48555;BME280;34336;48.270;16.716;2023-05-20T09:47:23;109325.25;;;18.16;52.65
48555;BME280;34336;48.270;16.716;2023-05-20T09:49:52;109325.25;;;18.16;55.13
48555;BME280;34336;48.270;16.716;2023-05-20T09:52:19;109325.25;;;18.16;53.47
48555;BME280;34336;48.270;16.716;2023-05-20T09:54:47;109325.25;;;18.16;50.39
48555;BME280;34336;48.270;16.716;2023-05-20T09:57:14;109325.25;;;18.16;50.91
48555;BME280;34336;48.270;16.716;2023-05-20T09:59:41;109325.25;;;18.16;51.75
48555;BME280;34336;48.270;16.716;2023-05-20T10:02:09;109325.25;;;18.16;52.35
48555;BME280;34336;48.270;16.716;2023-05-20T10:04:36;109325.25;;;18.16;52.88
48555;BME280;34336;48.270;16.716;2023-05-20T10:12:17;109325.25;;;18.16;56.16
48555;BME280;34336;48.270;16.716;2023-05-20T10:17:20;109325.25;;;18.16;55.73
48555;BME280;34336;48.270;16.716;2023-05-20T10:19:56;109325.25;;;18.16;53.91
48555;BME280;34336;48.270;16.716;2023-05-20T10:22:26;109325.25;;;18.16;53.18
48555;BME280;34336;48.270;16.716;2023-05-20T10:24:59;109325.25;;;18.16;51.59
48555;BME280;34336;48.270;16.716;2023-05-20T10:27:26;109325.25;;;18.16;52.49
48555;BME280;34336;48.270;16.716;2023-05-20T10:29:56;109325.25;;;18.16;52.51
48555;BME280;34336;48.270;16.716;2023-05-20T10:32:30;109325.25;;;18.16;53.24
48555;BME280;34336;48.270;16.716;2023-05-20T10:35:01;109325.25;;;18.16;52.47
48555;BME280;34336;48.270;16.716;2023-05-20T10:37:31;109325.25;;;18.16;52.04
48555;BME280;34336;48.270;16.716;2023-05-20T10:40:09;109325.25;;;18.16;50.27
48555;BME280;34336;48.270;16.716;2023-05-20T10:42:36;109325.25;;;18.16;51.15
48555;BME280;34336;48.270;16.716;2023-05-20T10:45:04;109325.25;;;18.16;50.75
48555;BME280;34336;48.270;16.716;2023-05-20T10:47:31;109325.25;;;18.16;52.47
48555;BME280;34336;48.270;16.716;2023-05-20T10:49:58;109325.25;;;18.16;50.15
48555;BME280;34336;48.270;16.716;2023-05-20T10:52:31;109325.25;;;18.16;49.20
48555;BME280;34336;48.270;16.716;2023-05-20T10:54:58;109325.25;;;18.16;52.84
48555;BME280;34336;48.270;16.716;2023-05-20T10:57:26;109325.25;;;18.16;49.31
48555;BME280;34336;48.270;16.716;2023-05-20T10:59:56;109325.25;;;18.16;50.46
48555;BME280;34336;48.270;16.716;2023-05-20T11:02:24;109325.25;;;18.16;49.90
48555;BME280;34336;48.270;16.716;2023-05-20T11:04:57;109325.25;;;18.16;48.95
48555;BME280;34336;48.270;16.716;2023-05-20T11:07:24;109325.25;;;18.16;47.84
48555;BME280;34336;48.270;16.716;2023-05-20T11:09:51;109325.25;;;18.16;50.17
48555;BME280;34336;48.270;16.716;2023-05-20T11:12:18;109325.25;;;18.16;49.19
48555;BME280;34336;48.270;16.716;2023-05-20T11:14:46;109325.25;;;18.16;49.45
48555;BME280;34336;48.270;16.716;2023-05-20T11:17:13;109325.25;;;18.16;50.99
48555;BME280;34336;48.270;16.716;2023-05-20T11:19:41;109325.25;;;18.16;49.17
48555;BME280;34336;48.270;16.716;2023-05-20T11:22:07;109325.25;;;18.16;49.83
48555;BME280;34336;48.270;16.716;2023-05-20T11:24:34;109325.25;;;18.16;48.86
48555;BME280;34336;48.270;16.716;2023-05-20T11:27:01;109325.25;;;18.16;49.47
48555;BME280;34336;48.270;16.716;2023-05-20T11:29:27;109325.25;;;18.16;48.02
48555;BME280;34336;48.270;16.716;2023-05-20T11:31:58;109325.25;;;18.16;51.18
48555;BME280;34336;48.270;16.716;2023-05-20T11:34:25;109325.25;;;18.16;48.92
48555;BME280;34336;48.270;16.716;2023-05-20T11:36:56;109325.25;;;18.16;48.02
48555;BME280;34336;48.270;16.716;2023-05-20T11:39:24;109325.25;;;18.16;51.70
48555;BME280;34336;48.270;16.716;2023-05-20T11:41:52;109325.25;;;18.16;50.26
48555;BME280;34336;48.270;16.716;2023-05-20T11:44:19;109325.25;;;18.16;48.00
48555;BME280;34336;48.270;16.716;2023-05-20T11:46:46;109325.25;;;18.16;47.83
48555;BME280;34336;48.270;16.716;2023-05-20T11:49:13;109325.25;;;18.16;48.12
48555;BME280;34336;48.270;16.716;2023-05-20T11:51:41;109325.25;;;18.16;47.50
48555;BME280;34336;48.270;16.716;2023-05-20T11:54:08;109325.25;;;18.16;49.24
48555;BME280;34336;48.270;16.716;2023-05-20T11:56:36;109325.25;;;18.16;48.11
48555;BME280;34336;48.270;16.716;2023-05-20T11:59:03;109325.25;;;18.16;48.24
48555;BME280;34336;48.270;16.716;2023-05-20T12:01:37;109325.25;;;18.16;48.21
48555;BME280;34336;48.270;16.716;2023-05-20T12:04:10;109325.25;;;18.16;51.01
48555;BME280;34336;48.270;16.716;2023-05-20T12:06:39;109325.25;;;18.16;49.29
48555;BME280;34336;48.270;16.716;2023-05-20T12:09:06;109325.25;;;18.16;49.00
48555;BME280;34336;48.270;16.716;2023-05-20T12:11:37;109325.25;;;18.16;48.05
48555;BME280;34336;48.270;16.716;2023-05-20T12:14:06;109325.25;;;18.16;51.11
48555;BME280;34336;48.270;16.716;2023-05-20T12:16:33;109325.25;;;18.16;50.39
48555;BME280;34336;48.270;16.716;2023-05-20T12:19:00;109325.25;;;18.16;50.49
48555;BME280;34336;48.270;16.716;2023-05-20T12:21:27;109325.25;;;18.16;50.85
48555;BME280;34336;48.270;16.716;2023-05-20T12:23:54;109325.25;;;18.16;50.25
48555;BME280;34336;48.270;16.716;2023-05-20T12:26:24;109325.25;;;18.16;48.67
48555;BME280;34336;48.270;16.716;2023-05-20T12:28:51;109325.25;;;18.16;49.11
48555;BME280;34336;48.270;16.716;2023-05-20T12:31:18;109325.25;;;18.16;48.08
48555;BME280;34336;48.270;16.716;2023-05-20T12:33:45;109325.25;;;18.16;50.11
48555;BME280;34336;48.270;16.716;2023-05-20T12:36:11;109325.25;;;18.16;51.63
48555;BME280;34336;48.270;16.716;2023-05-20T12:38:38;109325.25;;;18.16;50.23
48555;BME280;34336;48.270;16.716;2023-05-20T12:41:05;109325.25;;;18.16;48.16
48555;BME280;34336;48.270;16.716;2023-05-20T12:43:32;109325.25;;;18.16;50.59
48555;BME280;34336;48.270;16.716;2023-05-20T12:46:02;109325.25;;;18.16;48.29
48555;BME280;34336;48.270;16.716;2023-05-20T12:48:29;109325.25;;;18.16;46.64
48555;BME280;34336;48.270;16.716;2023-05-20T12:50:55;109325.25;;;18.16;46.79